createdAt,value
2023-03-10T07:51:29.064Z,10.70
2023-03-10T07:53:56.890Z,10.70
2023-03-10T07:56:24.849Z,10.70
2023-03-10T07:58:52.737Z,10.80
2023-03-10T08:01:22.449Z,10.70
2023-03-10T08:03:50.503Z,10.80
2023-03-10T08:06:20.366Z,10.80
2023-03-10T08:08:49.555Z,10.90
2023-03-10T08:11:17.713Z,10.90
2023-03-10T08:13:47.372Z,10.90
2023-03-10T08:16:15.929Z,10.90
2023-03-10T08:18:44.227Z,11.00
2023-03-10T08:21:12.341Z,11.00
2023-03-10T08:23:40.456Z,11.00
2023-03-10T08:26:14.125Z,11.00
2023-03-10T08:28:42.570Z,11.00
2023-03-10T08:31:12.439Z,11.00
2023-03-10T08:33:41.017Z,11.00
2023-03-10T08:36:12.172Z,11.10
2023-03-10T08:38:41.110Z,11.10
2023-03-10T08:41:16.131Z,11.10
2023-03-10T08:43:46.552Z,11.10
2023-03-10T08:46:15.779Z,11.20
2023-03-10T08:48:43.756Z,11.10
2023-03-10T08:51:15.571Z,11.10
2023-03-10T08:53:44.106Z,11.20
2023-03-10T08:56:14.318Z,11.20
2023-03-10T08:58:42.980Z,11.20
2023-03-10T09:01:12.112Z,11.20
2023-03-10T09:03:41.588Z,11.10
2023-03-10T09:06:09.952Z,11.20
2023-03-10T09:08:39.604Z,11.20
2023-03-10T09:11:07.929Z,11.20
2023-03-10T09:13:37.134Z,11.10
2023-03-10T09:16:05.215Z,11.30
2023-03-10T09:18:33.049Z,11.40
2023-03-10T09:21:00.892Z,11.40
2023-03-10T09:23:29.346Z,11.30
2023-03-10T09:25:57.203Z,11.40
2023-03-10T09:28:25.408Z,11.40
2023-03-10T09:30:54.988Z,11.40
2023-03-10T09:33:24.165Z,11.50
2023-03-10T09:36:05.928Z,11.60
2023-03-10T09:38:34.415Z,11.50
2023-03-10T09:41:14.912Z,11.60
2023-03-10T09:43:50.436Z,11.60
2023-03-10T09:46:25.592Z,11.60
2023-03-10T09:49:00.105Z,11.60
2023-03-10T09:51:29.552Z,11.60
2023-03-10T09:54:15.706Z,11.60
2023-03-10T09:56:43.597Z,11.60
2023-03-10T09:59:16.046Z,11.60
2023-03-10T10:01:48.286Z,11.60
2023-03-10T10:04:19.035Z,11.70
2023-03-10T10:06:49.127Z,11.70
2023-03-10T10:09:26.026Z,11.70
2023-03-10T10:11:53.873Z,11.70
2023-03-10T10:14:31.806Z,11.90
2023-03-10T10:17:08.451Z,11.80
2023-03-10T10:19:39.402Z,11.80
2023-03-10T10:22:15.820Z,11.70
2023-03-10T10:24:59.535Z,11.70
2023-03-10T10:27:27.453Z,11.60
2023-03-10T10:29:55.339Z,11.60
2023-03-10T10:32:24.607Z,11.40
2023-03-10T10:34:52.710Z,11.40
2023-03-10T10:37:31.001Z,11.20
2023-03-10T10:40:00.280Z,11.20
2023-03-10T10:42:31.068Z,11.10
2023-03-10T10:45:00.267Z,11.00
2023-03-10T10:47:32.184Z,10.90
2023-03-10T10:50:18.189Z,10.90
2023-03-10T10:52:49.869Z,10.80
2023-03-10T10:55:28.179Z,10.70
2023-03-10T10:58:01.330Z,10.50
2023-03-10T11:00:32.227Z,10.40
2023-03-10T11:03:01.715Z,10.50
2023-03-10T11:05:35.971Z,10.40
2023-03-10T11:08:19.880Z,10.40
2023-03-10T11:10:54.279Z,10.50
2023-03-10T11:13:27.222Z,10.50
2023-03-10T11:16:04.226Z,10.50
2023-03-10T11:18:37.512Z,10.50
2023-03-10T11:21:12.677Z,10.50
2023-03-10T11:23:46.391Z,10.50
2023-03-10T11:26:22.181Z,10.50
2023-03-10T11:28:54.750Z,10.60
2023-03-10T11:31:34.294Z,10.60
2023-03-10T11:34:18.733Z,10.70
2023-03-10T11:36:56.776Z,10.70
2023-03-10T11:39:35.621Z,10.80
2023-03-10T11:42:11.242Z,10.80
2023-03-10T11:44:42.467Z,10.70
2023-03-10T11:47:20.319Z,10.60
2023-03-10T11:49:58.599Z,10.60
2023-03-10T11:52:29.488Z,10.70
2023-03-10T11:55:05.714Z,10.70
2023-03-10T11:57:38.885Z,10.80
2023-03-10T12:00:16.273Z,10.80
2023-03-10T12:02:55.805Z,10.90
2023-03-10T12:05:26.328Z,11.00
2023-03-10T12:07:59.106Z,11.10
2023-03-10T12:10:26.923Z,11.30
2023-03-10T12:12:55.330Z,11.40
2023-03-10T12:15:26.078Z,11.50
2023-03-10T12:17:54.833Z,11.60
2023-03-10T12:20:29.216Z,11.70
2023-03-10T12:22:59.115Z,11.70
2023-03-10T12:25:46.943Z,11.80
2023-03-10T12:28:26.245Z,11.90
2023-03-10T12:30:57.273Z,12.00
2023-03-10T12:33:42.891Z,12.10
2023-03-10T12:36:38.052Z,12.10
2023-03-10T12:39:37.848Z,12.20
2023-03-10T12:42:26.460Z,12.20
2023-03-10T12:45:08.086Z,12.30
2023-03-10T12:47:53.871Z,12.40
2023-03-10T12:50:46.724Z,12.40
2023-03-10T12:53:30.094Z,12.30
2023-03-10T12:56:24.817Z,12.30
2023-03-10T12:58:59.446Z,12.20
2023-03-10T13:01:35.045Z,12.10
2023-03-10T13:04:07.108Z,12.10
2023-03-10T13:06:41.689Z,12.10
2023-03-10T13:09:23.284Z,12.30
2023-03-10T13:11:55.458Z,12.40
2023-03-10T13:14:25.177Z,12.60
2023-03-10T13:16:57.985Z,13.30
2023-03-10T13:19:27.985Z,14.10
2023-03-10T13:21:56.430Z,14.40
2023-03-10T13:24:28.962Z,14.60
2023-03-10T13:27:07.816Z,14.20
2023-03-10T13:29:35.745Z,14.00
2023-03-10T13:32:03.935Z,13.80
2023-03-10T13:34:33.826Z,13.40
2023-03-10T13:37:06.180Z,12.90
2023-03-10T13:39:35.400Z,12.60
2023-03-10T13:42:04.985Z,12.40
2023-03-10T13:44:38.461Z,12.20
2023-03-10T13:47:15.552Z,12.10
2023-03-10T13:49:47.650Z,12.10
2023-03-10T13:52:18.645Z,12.10
2023-03-10T13:54:47.912Z,11.80
2023-03-10T13:57:21.428Z,12.00
2023-03-10T13:59:50.308Z,12.00
2023-03-10T14:02:20.371Z,11.90
2023-03-10T14:04:49.540Z,12.10
2023-03-10T14:07:20.475Z,12.40
2023-03-10T14:10:10.547Z,12.60
2023-03-10T14:12:40.826Z,12.50
2023-03-10T14:15:13.410Z,12.30
2023-03-10T14:17:42.670Z,12.10
2023-03-10T14:20:11.995Z,12.00
2023-03-10T14:22:43.195Z,11.90
2023-03-10T14:25:17.862Z,11.70
2023-03-10T14:27:47.421Z,11.70
2023-03-10T14:30:22.432Z,11.60
2023-03-10T14:32:50.704Z,11.50
2023-03-10T14:35:21.290Z,11.60
2023-03-10T14:37:49.639Z,11.50
2023-03-10T14:40:20.799Z,11.50
2023-03-10T14:42:50.829Z,11.40
2023-03-10T14:45:28.215Z,11.40
2023-03-10T14:47:58.375Z,11.50
2023-03-10T14:50:27.375Z,11.40
2023-03-10T14:52:55.392Z,11.50
2023-03-10T14:55:25.003Z,11.50
2023-03-10T14:57:59.062Z,11.50
2023-03-10T15:00:27.286Z,11.50
2023-03-10T15:02:55.355Z,11.50
2023-03-10T15:05:31.956Z,11.50
2023-03-10T15:08:06.377Z,11.40
2023-03-10T15:10:38.669Z,11.40
2023-03-10T15:13:07.102Z,11.30
2023-03-10T15:15:38.989Z,11.30
2023-03-10T15:18:07.076Z,11.30
2023-03-10T15:20:34.869Z,11.20
2023-03-10T15:23:05.635Z,11.10
2023-03-10T15:25:34.839Z,11.00
2023-03-10T15:28:03.160Z,11.00
2023-03-10T15:30:33.233Z,11.00
2023-03-10T15:33:01.218Z,11.00
2023-03-10T15:35:29.626Z,11.00
2023-03-10T15:37:58.187Z,10.90
2023-03-10T15:40:28.299Z,10.90
2023-03-10T15:42:58.311Z,10.80
2023-03-10T15:45:27.602Z,10.70
2023-03-10T15:47:55.447Z,10.60
2023-03-10T15:50:23.772Z,10.60
2023-03-10T15:52:53.601Z,10.60
2023-03-10T15:55:21.813Z,10.50
2023-03-10T15:57:50.132Z,10.60
2023-03-10T16:00:23.073Z,10.40
2023-03-10T16:02:51.649Z,10.30
2023-03-10T16:05:20.444Z,10.30
2023-03-10T16:07:48.656Z,10.30
2023-03-10T16:10:18.220Z,10.30
2023-03-10T16:12:46.540Z,10.20
2023-03-10T16:15:17.621Z,10.20
2023-03-10T16:17:47.441Z,10.10
2023-03-10T16:20:18.945Z,10.10
2023-03-10T16:22:46.886Z,10.10
2023-03-10T16:25:16.636Z,10.00
2023-03-10T16:27:45.734Z,10.10
2023-03-10T16:30:15.473Z,10.10
2023-03-10T16:32:47.039Z,10.10
2023-03-10T16:35:15.784Z,10.10
2023-03-10T16:37:44.514Z,10.10
2023-03-10T16:40:13.572Z,10.00
2023-03-10T16:42:45.393Z,10.00
2023-03-10T16:45:13.587Z,10.00
2023-03-10T16:47:43.838Z,10.00
2023-03-10T16:50:14.147Z,10.00
2023-03-10T16:52:43.586Z,10.10
2023-03-10T16:55:16.962Z,10.00
